Time;durP1;ratioP1;P1;durP2;ratioP2;P2;SDS_P1;SDS_P2;PMS_P1;PMS_P2;Temp;Humidity;BMP_temperature;BMP_pressure;BME280_temperature;BME280_humidity;BME280_pressure;Samples;Min_cycle;Max_cycle;Signal;HPM_P1;HPM_P2
2022/06/02 00:00:08;;;;;;;3.58;2.28;;;6.90;99.90;;;;;;5000489;28;20014;-81
2022/06/02 00:02:44;;;;;;;7.07;2.58;;;6.90;99.90;;;;;;5003612;28;20497;-81
2022/06/02 00:08:14;;;;;;;4.22;2.78;;;7.10;99.90;;;;;;4998556;28;20026;-81
2022/06/02 00:10:59;;;;;;;5.22;2.72;;;7.00;99.90;;;;;;5000264;28;20030;-81
2022/06/02 00:14:01;;;;;;;4.07;2.58;;;7.00;99.90;;;;;;5002840;28;20045;-81
2022/06/02 00:16:43;;;;;;;2.70;2.38;;;6.80;99.90;;;;;;4965739;28;20142;-81
2022/06/02 00:19:26;;;;;;;4.40;2.78;;;6.70;99.90;;;;;;4998846;28;20029;-82
2022/06/02 00:22:03;;;;;;;3.95;2.78;;;6.70;99.90;;;;;;4998873;28;20049;-81
2022/06/02 00:24:54;;;;;;;3.22;2.55;;;6.70;99.90;;;;;;4998877;28;20422;-81
2022/06/02 00:27:46;;;;;;;7.03;2.47;;;6.70;99.90;;;;;;4981028;28;20034;-81
2022/06/02 00:30:22;;;;;;;4.15;2.55;;;6.70;99.90;;;;;;4981027;28;20018;-81
2022/06/02 00:35:46;;;;;;;3.80;3.05;;;6.60;99.90;;;;;;4943484;28;20078;-82
2022/06/02 00:38:26;;;;;;;3.50;2.42;;;6.50;99.90;;;;;;4934309;29;20524;-81
2022/06/02 00:40:53;;;;;;;4.15;2.75;;;6.50;99.90;;;;;;4940695;29;20019;-82
2022/06/02 00:43:48;;;;;;;5.43;2.65;;;6.50;99.90;;;;;;4937324;29;20028;-82
2022/06/02 00:46:31;;;;;;;3.53;2.65;;;6.40;99.90;;;;;;4902859;29;20031;-82
2022/06/02 00:49:26;;;;;;;3.22;2.13;;;6.30;99.90;;;;;;4952254;29;20565;-80
2022/06/02 00:51:52;;;;;;;2.88;2.45;;;6.30;99.90;;;;;;4947057;28;20020;-80
2022/06/02 01:00:25;;;;;;;3.92;2.97;;;6.10;99.90;;;;;;4946173;29;20085;-80
2022/06/02 01:03:08;;;;;;;3.88;2.33;;;6.00;99.90;;;;;;4940622;28;20027;-81
2022/06/02 01:06:27;;;;;;;3.47;2.03;;;6.00;99.90;;;;;;4948593;28;20069;-80
2022/06/02 01:08:59;;;;;;;2.58;2.20;;;6.00;99.90;;;;;;4876279;29;20305;-80
2022/06/02 01:11:36;;;;;;;3.08;2.28;;;6.00;99.90;;;;;;4893011;29;20694;-80
2022/06/02 01:14:11;;;;;;;3.25;2.20;;;6.00;99.90;;;;;;4933483;28;20046;-80
2022/06/02 01:17:05;;;;;;;2.90;2.28;;;6.10;99.90;;;;;;4951846;29;20030;-82
2022/06/02 01:19:47;;;;;;;2.97;2.30;;;6.00;99.90;;;;;;4951747;28;20071;-82
2022/06/02 01:22:33;;;;;;;3.30;2.67;;;6.00;99.90;;;;;;4934684;29;20027;-79
2022/06/02 01:25:14;;;;;;;3.72;3.08;;;6.00;99.90;;;;;;4951753;28;20477;-80
2022/06/02 01:27:51;;;;;;;3.33;2.50;;;6.00;99.90;;;;;;4951940;28;20035;-82
2022/06/02 09:49:39;;;;;;;2.92;1.73;;;24.50;47.90;;;;;;5088257;27;20370;-82
2022/06/02 09:52:08;;;;;;;1.55;1.42;;;25.90;45.00;;;;;;5083056;28;20028;-83
2022/06/02 09:54:41;;;;;;;1.20;1.10;;;24.90;44.90;;;;;;5068599;28;20048;-83
2022/06/02 10:00:24;;;;;;;1.42;1.10;;;26.20;45.20;;;;;;5060600;28;20071;-84
2022/06/02 10:03:11;;;;;;;1.20;1.10;;;26.00;42.60;;;;;;5067872;28;20377;-82
2022/06/02 10:06:03;;;;;;;1.77;1.40;;;26.00;42.00;;;;;;5066287;28;20078;-85
2022/06/02 10:08:58;;;;;;;2.67;1.10;;;26.40;41.40;;;;;;5068027;28;20020;-85
2022/06/02 10:11:46;;;;;;;2.72;1.50;;;26.20;41.70;;;;;;5068093;28;20120;-83
2022/06/02 10:14:18;;;;;;;1.42;1.30;;;26.60;41.40;;;;;;5067568;28;20017;-81
2022/06/02 10:17:14;;;;;;;1.80;1.23;;;26.40;42.00;;;;;;5068384;28;20449;-83
2022/06/02 10:20:04;;;;;;;2.80;1.60;;;26.20;43.20;;;;;;5069011;28;20033;-92
2022/06/02 10:22:56;;;;;;;2.17;1.67;;;26.10;44.30;;;;;;5071064;28;20478;-91
2022/06/02 10:25:49;;;;;;;2.88;1.70;;;26.80;43.50;;;;;;5068718;28;20028;-86
2022/06/02 10:28:42;;;;;;;2.30;1.42;;;27.50;41.80;;;;;;5067649;28;20142;-85
2022/06/02 10:31:29;;;;;;;3.25;1.50;;;27.50;40.10;;;;;;5067514;28;20112;-86
2022/06/02 10:34:34;;;;;;;1.95;1.20;;;28.10;39.30;;;;;;5068343;28;20029;-86
2022/06/02 10:37:40;;;;;;;1.85;1.50;;;28.40;39.40;;;;;;5067460;28;20090;-85
2022/06/02 10:40:18;;;;;;;2.00;1.25;;;28.30;37.40;;;;;;5067844;28;20024;-87
2022/06/02 10:43:12;;;;;;;2.83;1.10;;;28.20;37.70;;;;;;5066607;28;20436;-87
2022/06/02 10:46:11;;;;;;;2.05;1.17;;;28.00;39.50;;;;;;5067760;28;20024;-86
2022/06/02 10:49:23;;;;;;;2.00;1.40;;;27.00;39.10;;;;;;5062277;28;20039;-84
2022/06/02 10:52:40;;;;;;;2.47;1.55;;;26.40;40.80;;;;;;5053894;28;20167;-86
2022/06/02 10:55:30;;;;;;;1.90;1.75;;;25.20;44.10;;;;;;5041618;28;20037;-85
2022/06/02 10:58:14;;;;;;;1.77;1.30;;;24.20;44.40;;;;;;5054019;28;20033;-86
2022/06/02 11:01:01;;;;;;;1.67;1.40;;;24.60;44.00;;;;;;5054274;28;20081;-87
2022/06/02 11:04:00;;;;;;;2.33;1.50;;;25.50;44.50;;;;;;5052902;28;20017;-85
2022/06/02 11:06:47;;;;;;;3.88;2.20;;;25.90;41.20;;;;;;5044436;28;20029;-84
2022/06/02 11:09:37;;;;;;;2.75;2.22;;;26.50;43.10;;;;;;5052919;28;20024;-85
2022/06/02 11:12:27;;;;;;;2.58;1.30;;;27.70;43.40;;;;;;5053682;28;20036;-86
2022/06/02 11:15:41;;;;;;;1.90;1.20;;;28.50;38.60;;;;;;5053815;28;20025;-82
2022/06/02 11:18:28;;;;;;;1.40;1.30;;;29.00;38.10;;;;;;5052368;28;20375;-83
2022/06/02 11:21:25;;;;;;;2.05;1.30;;;29.50;37.10;;;;;;5052067;28;20055;-82
2022/06/02 11:24:25;;;;;;;2.10;1.42;;;29.40;37.60;;;;;;5052876;28;20025;-83
2022/06/02 11:27:27;;;;;;;2.50;1.30;;;28.80;38.70;;;;;;5053679;28;20033;-82
2022/06/02 11:30:13;;;;;;;1.50;1.40;;;28.30;38.80;;;;;;5052752;28;20041;-83
2022/06/02 11:33:14;;;;;;;1.58;1.30;;;29.10;39.00;;;;;;5050876;28;20029;-82
2022/06/02 11:36:13;;;;;;;1.95;1.80;;;29.30;38.90;;;;;;5085611;23;20048;-87
2022/06/02 11:39:08;;;;;;;1.75;1.20;;;27.60;38.10;;;;;;5074365;28;20037;-86
2022/06/02 11:42:04;;;;;;;1.85;1.40;;;27.50;40.60;;;;;;5073980;28;20016;-86
2022/06/02 11:44:59;;;;;;;2.05;1.65;;;28.40;38.90;;;;;;5074021;28;20056;-87
2022/06/02 11:47:51;;;;;;;2.58;1.30;;;30.20;39.00;;;;;;5072799;28;20043;-88
2022/06/02 11:50:37;;;;;;;2.17;1.10;;;31.00;35.70;;;;;;5073777;28;20028;-84
2022/06/02 11:53:16;;;;;;;1.23;0.95;;;30.90;37.50;;;;;;5072530;28;20029;-86
2022/06/02 11:56:07;;;;;;;2.45;1.17;;;31.20;35.30;;;;;;5072569;28;20056;-85
2022/06/02 11:58:58;;;;;;;1.13;1.13;;;31.40;35.50;;;;;;5073846;28;20445;-85
2022/06/02 12:01:50;;;;;;;1.35;0.82;;;32.20;35.10;;;;;;5071815;28;20380;-84
2022/06/02 12:04:40;;;;;;;0.60;0.60;;;32.60;33.50;;;;;;5073073;28;20013;-85
2022/06/02 12:07:36;;;;;;;1.40;0.90;;;32.80;32.90;;;;;;5073647;28;20025;-85
2022/06/02 12:10:13;;;;;;;0.70;0.70;;;32.90;33.50;;;;;;5073890;28;20039;-84
2022/06/02 12:12:49;;;;;;;1.63;1.25;;;32.90;33.80;;;;;;5073548;28;20389;-84
2022/06/02 12:15:31;;;;;;;3.15;1.27;;;32.60;33.50;;;;;;5073435;28;20095;-85
2022/06/02 12:18:26;;;;;;;3.20;1.10;;;32.40;34.00;;;;;;5073360;28;20115;-88
2022/06/02 12:21:00;;;;;;;1.23;1.00;;;31.80;33.70;;;;;;5071827;28;20119;-85
2022/06/02 12:23:35;;;;;;;1.75;1.00;;;32.20;33.50;;;;;;5073260;28;20020;-85
2022/06/02 12:26:07;;;;;;;1.80;1.08;;;32.80;33.20;;;;;;5071964;28;20477;-83
2022/06/02 12:28:57;;;;;;;0.90;0.90;;;32.10;33.50;;;;;;5072059;28;20028;-83
2022/06/02 12:31:48;;;;;;;1.48;0.90;;;31.90;31.80;;;;;;5071867;28;20070;-85
2022/06/02 12:34:34;;;;;;;1.85;0.80;;;30.50;35.60;;;;;;5082554;23;20045;-82
2022/06/02 12:37:03;;;;;;;1.02;0.73;;;29.00;37.50;;;;;;5051349;28;20036;-82
2022/06/02 12:40:05;;;;;;;1.00;0.90;;;27.80;38.50;;;;;;5052142;28;20551;-82
2022/06/02 12:42:46;;;;;;;0.98;0.98;;;26.70;40.40;;;;;;5052310;28;20028;-82
2022/06/02 12:45:36;;;;;;;3.70;1.25;;;26.40;41.90;;;;;;5052162;28;20017;-81
2022/06/02 12:48:41;;;;;;;2.47;1.27;;;25.70;43.20;;;;;;5051908;28;20121;-81
2022/06/02 12:51:28;;;;;;;1.30;0.82;;;26.90;40.60;;;;;;5052059;28;20108;-82
2022/06/02 12:54:29;;;;;;;2.45;0.82;;;27.00;41.00;;;;;;5052057;28;20090;-81
2022/06/02 12:57:27;;;;;;;0.50;0.50;;;26.80;40.60;;;;;;5007308;28;20460;-81
2022/06/02 12:59:58;;;;;;;1.27;0.93;;;29.20;38.70;;;;;;5051721;28;20024;-82
2022/06/02 13:02:57;;;;;;;0.80;0.63;;;30.70;35.90;;;;;;5052002;28;20067;-81
2022/06/02 13:05:42;;;;;;;1.35;0.60;;;30.20;35.90;;;;;;5051490;28;20027;-81
2022/06/02 13:08:44;;;;;;;1.60;0.63;;;31.70;35.00;;;;;;5051596;28;20026;-82
2022/06/02 13:11:39;;;;;;;0.50;0.40;;;32.80;32.20;;;;;;5051641;28;20100;-81
2022/06/02 13:14:25;;;;;;;0.68;0.60;;;32.60;32.00;;;;;;5049438;28;20061;-81
2022/06/02 13:17:05;;;;;;;0.95;0.60;;;32.50;30.30;;;;;;5051901;28;20052;-81
2022/06/02 13:19:52;;;;;;;0.80;0.65;;;33.40;30.30;;;;;;5051164;28;20040;-81
2022/06/02 13:22:44;;;;;;;0.50;0.50;;;33.30;29.80;;;;;;5051623;28;20111;-81
2022/06/02 13:25:27;;;;;;;0.85;0.40;;;33.80;30.40;;;;;;5051566;28;20024;-81
2022/06/02 13:28:27;;;;;;;1.80;0.60;;;33.80;30.40;;;;;;5051558;28;20033;-81
2022/06/02 13:31:16;;;;;;;0.55;0.20;;;32.90;29.50;;;;;;5051516;28;20069;-82
2022/06/02 13:33:46;;;;;;;2.13;0.90;;;32.40;32.00;;;;;;5051857;28;20028;-81
2022/06/02 13:36:20;;;;;;;0.65;0.47;;;33.80;28.70;;;;;;5051377;28;20025;-81
2022/06/02 13:38:52;;;;;;;1.00;0.50;;;32.60;30.00;;;;;;5051523;28;20461;-81
2022/06/02 13:41:50;;;;;;;0.80;0.40;;;34.00;29.60;;;;;;5051672;28;20025;-81
2022/06/02 13:44:45;;;;;;;0.47;0.47;;;34.60;28.80;;;;;;5051413;28;20112;-81
2022/06/02 13:47:29;;;;;;;1.45;0.60;;;34.20;28.10;;;;;;5034000;28;20594;-82
2022/06/02 13:50:20;;;;;;;0.50;0.47;;;33.40;29.10;;;;;;5050029;28;20054;-81
2022/06/02 13:53:10;;;;;;;1.05;0.57;;;34.00;28.80;;;;;;5051438;28;20021;-81
2022/06/02 13:59:09;;;;;;;0.50;0.40;;;32.40;29.90;;;;;;5017493;28;20111;-81
2022/06/02 14:01:53;;;;;;;3.72;0.32;;;33.00;30.00;;;;;;5050107;28;20025;-81
2022/06/02 14:04:37;;;;;;;0.70;0.50;;;33.10;28.90;;;;;;5050731;28;20021;-81
2022/06/02 14:07:09;;;;;;;0.30;0.30;;;34.70;27.90;;;;;;5051126;28;20029;-81
2022/06/02 14:09:49;;;;;;;;;;;34.20;27.30;;;;;;5051643;28;20032;-81
2022/06/02 14:12:30;;;;;;;0.82;0.40;;;34.10;27.70;;;;;;5051043;28;20415;-81
2022/06/02 14:15:15;;;;;;;0.20;0.20;;;33.90;26.70;;;;;;5051228;28;20037;-81
2022/06/02 14:18:16;;;;;;;0.30;0.30;;;33.80;26.60;;;;;;5051208;28;20072;-81
2022/06/02 14:20:59;;;;;;;0.30;0.30;;;33.60;27.30;;;;;;5051082;28;20102;-81
2022/06/02 14:23:58;;;;;;;0.40;0.40;;;34.60;26.70;;;;;;5051457;28;20103;-80
2022/06/02 14:26:51;;;;;;;0.30;0.30;;;33.60;27.70;;;;;;5036835;28;20474;-80
2022/06/02 14:29:52;;;;;;;0.40;0.30;;;34.30;27.70;;;;;;5054676;28;20033;-80
2022/06/02 14:32:49;;;;;;;0.70;0.50;;;34.00;27.20;;;;;;5037044;28;20462;-81
2022/06/02 14:35:27;;;;;;;0.52;0.43;;;33.10;28.20;;;;;;5054726;28;20029;-80
2022/06/02 14:38:09;;;;;;;0.20;0.20;;;33.00;27.30;;;;;;5054555;28;20569;-80
2022/06/02 14:40:57;;;;;;;0.38;0.30;;;32.90;26.80;;;;;;5054713;28;20104;-81
2022/06/02 14:43:40;;;;;;;1.50;0.45;;;33.70;27.20;;;;;;5054717;28;20021;-80
2022/06/02 14:46:11;;;;;;;0.98;0.88;;;33.70;27.20;;;;;;5054594;28;20021;-81
2022/06/02 14:48:55;;;;;;;0.88;0.80;;;33.60;26.70;;;;;;5054473;28;20363;-81
2022/06/02 14:51:34;;;;;;;1.70;1.27;;;33.50;26.60;;;;;;5054038;28;20075;-82
2022/06/02 14:54:23;;;;;;;1.33;1.10;;;33.90;26.80;;;;;;5054455;28;20025;-81
2022/06/02 14:57:08;;;;;;;1.48;1.13;;;33.10;27.20;;;;;;5014959;28;20128;-81
2022/06/02 14:59:54;;;;;;;0.75;0.57;;;33.60;27.00;;;;;;5054460;28;20032;-81
2022/06/02 15:02:47;;;;;;;1.05;0.60;;;33.70;26.50;;;;;;5052919;28;20477;-81
2022/06/02 15:05:37;;;;;;;1.50;1.10;;;33.10;26.60;;;;;;5053894;28;20025;-81
2022/06/02 15:08:18;;;;;;;0.50;0.30;;;33.00;26.50;;;;;;5054189;28;20033;-81
2022/06/02 15:11:09;;;;;;;0.60;0.40;;;33.50;26.70;;;;;;5054251;28;20021;-81
2022/06/02 15:13:55;;;;;;;0.55;0.40;;;33.30;26.40;;;;;;5053917;28;20024;-81
2022/06/02 15:17:02;;;;;;;0.77;0.30;;;32.30;26.80;;;;;;5053872;28;20043;-81
2022/06/02 15:19:40;;;;;;;0.98;0.60;;;31.20;27.70;;;;;;5053704;28;20100;-81
2022/06/02 15:22:24;;;;;;;1.27;0.70;;;31.60;27.50;;;;;;5053720;28;20155;-81
2022/06/02 15:24:53;;;;;;;1.58;1.02;;;32.70;27.40;;;;;;5053540;28;20025;-81
2022/06/02 15:27:42;;;;;;;0.73;0.30;;;32.90;27.60;;;;;;5053639;28;20504;-81
2022/06/02 15:30:17;;;;;;;0.55;0.40;;;32.80;25.00;;;;;;5053693;28;20021;-81
2022/06/02 15:32:52;;;;;;;1.48;0.93;;;30.80;27.30;;;;;;5053377;28;20675;-81
2022/06/02 15:35:30;;;;;;;1.65;0.75;;;30.90;26.90;;;;;;5083158;22;20045;-84
2022/06/02 15:38:26;;;;;;;0.90;0.60;;;31.10;26.40;;;;;;5073216;28;20184;-85
2022/06/02 15:41:23;;;;;;;0.22;0.20;;;30.70;25.60;;;;;;5072946;28;20024;-84
2022/06/02 15:44:23;;;;;;;0.17;0.17;;;30.90;26.00;;;;;;5072584;28;20190;-84
2022/06/02 15:47:03;;;;;;;0.70;0.20;;;30.80;25.80;;;;;;5072532;28;20115;-84
2022/06/02 15:50:06;;;;;;;0.30;0.30;;;29.80;26.80;;;;;;5073496;28;20031;-83
2022/06/02 15:53:13;;;;;;;0.20;0.20;;;29.00;28.00;;;;;;5072545;28;20024;-84
2022/06/02 15:56:00;;;;;;;0.57;0.22;;;27.70;29.20;;;;;;5072288;28;20031;-83
2022/06/02 15:59:14;;;;;;;0.32;0.30;;;26.90;28.30;;;;;;5072161;28;20047;-85
2022/06/02 16:02:04;;;;;;;0.55;0.30;;;25.80;29.40;;;;;;5072295;28;20056;-83
2022/06/02 16:05:07;;;;;;;0.77;0.40;;;25.10;31.00;;;;;;5071930;28;20028;-85
2022/06/02 16:08:23;;;;;;;0.75;0.30;;;24.70;32.20;;;;;;5073638;28;20029;-84
2022/06/02 16:11:21;;;;;;;0.32;0.30;;;24.20;33.10;;;;;;5072210;28;20355;-87
2022/06/02 16:14:02;;;;;;;0.45;0.30;;;23.80;34.80;;;;;;5073543;28;20113;-84
2022/06/02 16:16:49;;;;;;;0.50;0.50;;;23.70;35.90;;;;;;5073407;28;20028;-84
2022/06/02 16:19:26;;;;;;;0.95;0.70;;;23.30;37.60;;;;;;5071815;28;20303;-86
2022/06/02 16:22:05;;;;;;;0.50;0.50;;;22.90;38.80;;;;;;5072348;28;20035;-85
2022/06/02 16:24:51;;;;;;;0.85;0.55;;;22.70;40.00;;;;;;5071982;28;20024;-85
2022/06/02 16:27:49;;;;;;;0.70;0.70;;;22.70;39.30;;;;;;5071853;28;20040;-84
2022/06/02 16:30:28;;;;;;;0.65;0.65;;;22.40;40.20;;;;;;5071678;28;20024;-84
2022/06/02 16:33:21;;;;;;;0.70;0.60;;;22.40;41.80;;;;;;5071782;28;20036;-85
2022/06/02 16:36:12;;;;;;;1.50;0.98;;;22.40;37.70;;;;;;5053796;23;20037;-81
2022/06/02 16:38:59;;;;;;;1.17;0.77;;;22.10;43.00;;;;;;5032779;28;20024;-81
2022/06/02 16:41:28;;;;;;;0.60;0.60;;;22.10;41.20;;;;;;5032523;28;20022;-82
2022/06/02 16:44:02;;;;;;;0.40;0.40;;;22.00;41.00;;;;;;5032196;28;20502;-79
2022/06/02 16:46:33;;;;;;;0.63;0.63;;;21.60;40.50;;;;;;5031812;28;20029;-82
2022/06/02 16:49:29;;;;;;;0.77;0.77;;;21.60;43.40;;;;;;5032200;28;20033;-82
2022/06/02 16:52:28;;;;;;;0.98;0.60;;;21.50;42.30;;;;;;5032351;28;20075;-81
2022/06/02 16:55:19;;;;;;;0.77;0.77;;;21.40;45.40;;;;;;5030932;28;20542;-82
2022/06/02 16:57:47;;;;;;;0.95;0.60;;;21.30;45.00;;;;;;5032305;28;20108;-81
2022/06/02 17:00:38;;;;;;;0.75;0.60;;;21.20;43.70;;;;;;5032061;28;20029;-82
2022/06/02 17:03:07;;;;;;;1.00;0.65;;;21.20;42.90;;;;;;5032153;28;20022;-81
2022/06/02 17:05:54;;;;;;;0.68;0.68;;;20.90;45.30;;;;;;5031539;28;20036;-81
2022/06/02 17:08:47;;;;;;;1.33;1.00;;;20.90;43.90;;;;;;5031809;28;20088;-81
2022/06/02 17:11:24;;;;;;;1.02;0.70;;;21.10;44.40;;;;;;5032016;28;20053;-81
2022/06/02 17:14:12;;;;;;;1.13;0.90;;;20.90;42.50;;;;;;5031959;28;20036;-82
2022/06/02 17:16:48;;;;;;;0.52;0.52;;;20.80;42.50;;;;;;5031869;28;20020;-82
2022/06/02 17:19:38;;;;;;;0.80;0.80;;;20.80;44.50;;;;;;5031621;28;20029;-82
2022/06/02 17:22:22;;;;;;;1.00;0.90;;;20.80;45.70;;;;;;5030549;28;20100;-81
2022/06/02 17:25:03;;;;;;;1.13;0.90;;;20.70;47.00;;;;;;5031751;28;20029;-82
2022/06/02 17:28:02;;;;;;;1.08;1.02;;;20.60;47.50;;;;;;5031681;28;20161;-81
2022/06/02 17:30:43;;;;;;;1.88;1.40;;;20.50;47.40;;;;;;5031577;28;20091;-81
2022/06/02 17:33:20;;;;;;;2.10;1.20;;;20.40;49.10;;;;;;5031876;28;20026;-82
2022/06/02 17:35:52;;;;;;;2.22;1.17;;;20.30;49.80;;;;;;5084711;22;20043;-84
2022/06/02 17:38:18;;;;;;;;;;;20.20;49.50;;;;;;5054396;28;20058;-85
2022/06/02 17:41:14;;;;;;;0.88;0.88;;;20.10;51.10;;;;;;5053888;28;19911;-84
2022/06/02 17:44:21;;;;;;;2.20;1.45;;;20.10;51.90;;;;;;5053766;28;20017;-84
2022/06/02 17:47:14;;;;;;;1.40;1.30;;;19.90;51.20;;;;;;5034121;28;20120;-84
2022/06/02 17:49:44;;;;;;;;;;;20.00;52.10;;;;;;5034310;28;20024;-84
2022/06/02 17:52:25;;;;;;;1.65;1.20;;;20.00;52.30;;;;;;5034095;28;19911;-84
2022/06/02 17:55:11;;;;;;;2.53;1.27;;;19.90;52.40;;;;;;5033794;28;20071;-83
2022/06/02 17:58:03;;;;;;;1.23;1.10;;;19.90;53.40;;;;;;5033656;28;20025;-83
2022/06/02 18:00:50;;;;;;;4.15;1.05;;;19.70;52.40;;;;;;5037394;28;20032;-84
2022/06/02 18:03:34;;;;;;;1.98;1.30;;;19.70;54.60;;;;;;5037682;28;20551;-83
2022/06/02 18:06:18;;;;;;;1.23;1.13;;;19.50;54.10;;;;;;5024967;28;20037;-83
2022/06/02 18:08:53;;;;;;;1.30;1.20;;;19.50;55.20;;;;;;5035639;28;20033;-84
2022/06/02 18:11:43;;;;;;;1.13;1.10;;;19.40;53.80;;;;;;5017631;28;20446;-83
2022/06/02 18:14:27;;;;;;;1.35;1.00;;;19.40;55.50;;;;;;5017400;28;20025;-83
2022/06/02 18:17:21;;;;;;;1.13;0.95;;;19.20;56.60;;;;;;5017649;28;20025;-84
2022/06/02 18:20:00;;;;;;;2.28;1.00;;;19.10;57.20;;;;;;5016996;28;20490;-83
2022/06/02 18:22:47;;;;;;;1.80;1.25;;;19.10;58.70;;;;;;5017392;28;20563;-83
2022/06/02 18:25:50;;;;;;;2.95;1.35;;;19.10;60.10;;;;;;5017685;28;20036;-83
2022/06/02 18:28:41;;;;;;;1.90;1.20;;;18.90;59.80;;;;;;5017194;28;20402;-82
2022/06/02 18:31:38;;;;;;;4.63;1.40;;;18.80;61.20;;;;;;5017400;28;20025;-84
2022/06/02 18:34:22;;;;;;;1.75;1.38;;;18.70;62.90;;;;;;5017603;28;20029;-83
2022/06/02 18:37:16;;;;;;;1.50;1.30;;;18.60;66.40;;;;;;5017247;28;20116;-84
2022/06/02 18:40:14;;;;;;;1.48;1.35;;;18.40;71.10;;;;;;5017065;28;20030;-83
2022/06/02 18:42:59;;;;;;;4.43;1.80;;;18.30;74.20;;;;;;5017092;28;20493;-83
2022/06/02 18:45:51;;;;;;;4.15;1.60;;;18.20;78.40;;;;;;5017088;28;20025;-83
2022/06/02 18:48:55;;;;;;;3.70;1.90;;;18.10;80.90;;;;;;5016937;28;20038;-83
2022/06/02 18:51:33;;;;;;;2.58;2.22;;;18.00;86.30;;;;;;5016577;28;20033;-83
2022/06/02 18:54:24;;;;;;;2.53;2.05;;;17.90;87.40;;;;;;5016727;28;20033;-83
2022/06/02 18:56:58;;;;;;;1.80;1.63;;;17.80;91.10;;;;;;5034539;28;20025;-83
2022/06/02 18:59:36;;;;;;;1.98;1.88;;;17.70;92.20;;;;;;5016714;28;20022;-84
2022/06/02 19:02:04;;;;;;;2.28;2.03;;;17.60;94.50;;;;;;5016532;28;20136;-83
2022/06/02 19:04:52;;;;;;;3.65;2.30;;;17.50;96.40;;;;;;5016018;28;20018;-82
2022/06/02 19:13:55;;;;;;;3.45;2.17;;;17.10;99.90;;;;;;5034194;28;20067;-82
2022/06/02 19:16:48;;;;;;;3.22;2.25;;;17.00;99.90;;;;;;5016447;28;20045;-82
2022/06/02 19:19:31;;;;;;;2.53;2.33;;;16.80;99.90;;;;;;5016433;28;20124;-82
2022/06/02 19:22:24;;;;;;;2.15;1.92;;;16.60;99.90;;;;;;5016276;28;20022;-82
2022/06/02 19:25:15;;;;;;;4.90;2.60;;;16.40;99.90;;;;;;5033935;28;20035;-82
2022/06/02 19:28:10;;;;;;;3.90;2.80;;;16.20;99.90;;;;;;5016055;28;20037;-82
2022/06/02 19:31:20;;;;;;;4.22;2.67;;;16.10;99.90;;;;;;5015966;28;20538;-83
2022/06/02 19:36:45;;;;;;;4.15;2.75;;;15.70;99.90;;;;;;5051064;28;20041;-82
2022/06/02 19:39:16;;;;;;;3.42;3.10;;;15.60;99.90;;;;;;5053662;28;20032;-82
2022/06/02 19:42:00;;;;;;;3.33;3.03;;;15.50;99.90;;;;;;5053506;28;20063;-82
2022/06/02 19:44:34;;;;;;;6.53;3.10;;;15.40;99.90;;;;;;5053439;28;20028;-82
2022/06/02 19:47:17;;;;;;;5.35;3.20;;;15.30;99.90;;;;;;5053339;28;20036;-82
2022/06/02 19:50:15;;;;;;;4.00;3.08;;;15.20;99.90;;;;;;5053109;28;20033;-82
2022/06/02 19:53:10;;;;;;;5.22;3.13;;;15.10;99.90;;;;;;5052271;28;20100;-82
2022/06/02 19:55:56;;;;;;;4.20;3.22;;;15.00;99.90;;;;;;5053066;28;20024;-82
2022/06/02 19:58:40;;;;;;;4.95;3.47;;;14.90;99.90;;;;;;5053394;28;20072;-82
2022/06/02 20:01:18;;;;;;;3.50;3.20;;;14.90;99.90;;;;;;5052987;28;20029;-82
2022/06/02 20:04:05;;;;;;;5.15;4.30;;;14.80;99.90;;;;;;5052941;28;20106;-82
2022/06/02 20:06:36;;;;;;;4.43;2.97;;;14.70;99.90;;;;;;5052787;28;20100;-82
2022/06/02 20:09:44;;;;;;;3.78;3.38;;;14.60;99.90;;;;;;5053086;28;20064;-82
2022/06/02 20:12:18;;;;;;;4.80;3.75;;;14.40;99.90;;;;;;5042033;28;20042;-82
2022/06/02 20:14:53;;;;;;;3.67;3.38;;;14.40;99.90;;;;;;5052931;28;20478;-82
2022/06/02 20:17:29;;;;;;;4.93;3.72;;;14.30;99.90;;;;;;5053205;28;20021;-82
2022/06/02 20:20:16;;;;;;;5.13;4.32;;;14.20;99.90;;;;;;5052582;28;20112;-82
2022/06/02 20:23:20;;;;;;;3.95;3.65;;;14.20;99.90;;;;;;5034379;28;20029;-82
2022/06/02 20:26:05;;;;;;;5.82;3.90;;;14.10;99.90;;;;;;5052469;28;20078;-82
2022/06/02 20:28:51;;;;;;;4.35;3.85;;;14.10;99.90;;;;;;5052710;28;20041;-82
2022/06/02 20:31:34;;;;;;;4.68;3.67;;;14.00;99.90;;;;;;5052707;28;20025;-82
2022/06/02 20:36:54;;;;;;;4.40;4.00;;;13.90;99.90;;;;;;5069860;28;20044;-82
2022/06/02 20:39:52;;;;;;;5.85;4.25;;;13.90;99.90;;;;;;5072298;28;20149;-83
2022/06/02 20:42:28;;;;;;;4.65;4.13;;;13.80;99.90;;;;;;5054347;28;20119;-82
2022/06/02 20:45:12;;;;;;;5.13;4.30;;;13.80;99.90;;;;;;5054493;28;20026;-83
2022/06/02 20:47:44;;;;;;;6.40;4.32;;;13.80;99.90;;;;;;5054143;28;20036;-82
2022/06/02 20:50:15;;;;;;;5.30;4.07;;;13.80;99.90;;;;;;5054282;28;20039;-83
2022/06/02 20:52:56;;;;;;;5.95;4.78;;;13.80;99.90;;;;;;5072234;28;20024;-82
2022/06/02 20:55:54;;;;;;;5.13;4.38;;;13.80;99.90;;;;;;5054323;28;20016;-82
2022/06/02 20:58:45;;;;;;;4.55;4.00;;;13.80;99.90;;;;;;5053695;28;20032;-83
2022/06/02 21:01:40;;;;;;;4.57;3.90;;;13.80;99.90;;;;;;5054188;28;20088;-83
2022/06/02 21:04:09;;;;;;;5.78;5.07;;;13.80;99.90;;;;;;5054117;28;20020;-82
2022/06/02 21:06:51;;;;;;;6.32;4.10;;;13.90;99.90;;;;;;5053572;28;20028;-83
2022/06/02 21:09:41;;;;;;;6.13;4.43;;;13.70;99.90;;;;;;5054033;28;20033;-82
2022/06/02 21:12:24;;;;;;;5.05;4.53;;;13.70;99.90;;;;;;5071827;28;20100;-82
2022/06/02 21:15:07;;;;;;;5.50;4.80;;;13.70;99.90;;;;;;5052699;28;20069;-82
2022/06/02 21:17:46;;;;;;;5.40;4.65;;;13.70;99.90;;;;;;5071523;28;20062;-82
2022/06/02 21:20:25;;;;;;;6.05;4.38;;;13.60;99.90;;;;;;5053376;28;20089;-83
2022/06/02 21:22:57;;;;;;;7.50;5.35;;;13.50;99.90;;;;;;5071580;28;20075;-81
2022/06/02 21:25:43;;;;;;;7.78;5.00;;;13.40;99.90;;;;;;5071798;28;20107;-83
2022/06/02 21:28:21;;;;;;;7.53;4.93;;;13.30;99.90;;;;;;5053755;28;20119;-83
2022/06/02 21:30:47;;;;;;;7.20;5.03;;;13.10;99.90;;;;;;5053654;28;20028;-83
2022/06/02 21:33:21;;;;;;;8.05;5.28;;;13.10;99.90;;;;;;5053256;28;20016;-82
2022/06/02 21:35:55;;;;;;;5.90;4.95;;;13.10;99.90;;;;;;5053781;28;20047;-83
2022/06/02 21:38:35;;;;;;;5.00;4.60;;;13.10;99.90;;;;;;5053450;28;20020;-82
2022/06/02 21:41:08;;;;;;;5.30;4.13;;;13.00;99.90;;;;;;5053578;28;20024;-83
2022/06/02 21:43:46;;;;;;;5.15;4.65;;;12.90;99.90;;;;;;5071770;28;20032;-83
2022/06/02 21:46:27;;;;;;;5.03;4.43;;;12.80;99.90;;;;;;5053423;28;20103;-83
2022/06/02 21:49:06;;;;;;;5.68;4.30;;;12.80;99.90;;;;;;5053490;28;20036;-82
2022/06/02 21:51:51;;;;;;;8.43;4.93;;;12.70;99.90;;;;;;5053282;28;20133;-83
2022/06/02 21:54:38;;;;;;;5.78;4.90;;;12.60;99.90;;;;;;5053377;28;20059;-82
2022/06/02 21:57:10;;;;;;;5.53;4.25;;;12.50;99.90;;;;;;5071424;28;20024;-82
2022/06/02 21:59:52;;;;;;;7.03;5.18;;;12.40;99.90;;;;;;5053331;28;20031;-82
2022/06/02 22:02:25;;;;;;;5.97;5.20;;;12.40;99.90;;;;;;5071456;28;20020;-82
2022/06/02 22:05:14;;;;;;;6.60;4.88;;;12.40;99.90;;;;;;5053098;28;20028;-83
2022/06/02 22:07:52;;;;;;;6.03;4.80;;;12.30;99.90;;;;;;5071175;28;20028;-82
2022/06/02 22:10:35;;;;;;;8.43;5.68;;;12.30;99.90;;;;;;5053216;28;20162;-82
2022/06/02 22:13:31;;;;;;;8.50;5.75;;;12.10;99.90;;;;;;5070889;28;20028;-81
2022/06/02 22:16:09;;;;;;;6.30;5.15;;;11.90;99.90;;;;;;5052939;28;20423;-82
2022/06/02 22:18:53;;;;;;;6.00;5.13;;;11.80;99.90;;;;;;5053140;28;20398;-81
2022/06/02 22:21:20;;;;;;;6.10;5.00;;;11.70;99.90;;;;;;5070789;28;20024;-81
2022/06/02 22:24:09;;;;;;;8.57;5.90;;;11.60;99.90;;;;;;5053223;28;20078;-81
2022/06/02 22:26:54;;;;;;;6.82;5.50;;;11.50;99.90;;;;;;5053171;28;20035;-81
2022/06/02 22:29:26;;;;;;;6.78;5.32;;;11.40;99.90;;;;;;5070964;28;20033;-81
2022/06/02 22:32:35;;;;;;;8.15;5.63;;;11.40;99.90;;;;;;5070728;28;20024;-81
2022/06/02 22:35:24;;;;;;;7.70;5.68;;;11.30;99.90;;;;;;5088182;22;20045;-81
2022/06/02 22:38:09;;;;;;;8.35;6.47;;;11.20;99.90;;;;;;5053139;28;20025;-82
2022/06/02 22:40:49;;;;;;;10.15;6.88;;;11.20;99.90;;;;;;5070870;28;20063;-81
2022/06/02 22:43:20;;;;;;;8.93;6.35;;;11.20;99.90;;;;;;5070814;28;20025;-81
2022/06/02 22:45:52;;;;;;;7.68;5.90;;;11.20;99.90;;;;;;5073018;28;20021;-82
2022/06/02 22:48:18;;;;;;;8.93;6.82;;;11.30;99.90;;;;;;5074297;28;20041;-81
2022/06/02 22:51:18;;;;;;;10.20;6.57;;;11.30;99.90;;;;;;5074338;28;20021;-82
2022/06/02 22:53:52;;;;;;;9.90;6.28;;;11.30;99.90;;;;;;5074544;28;20025;-82
2022/06/02 22:56:45;;;;;;;10.15;6.75;;;11.40;99.90;;;;;;5074471;28;20104;-82
2022/06/02 22:59:33;;;;;;;9.65;6.55;;;11.60;99.90;;;;;;5074243;28;20105;-81
2022/06/02 23:02:11;;;;;;;8.25;5.78;;;11.70;99.90;;;;;;5056578;28;20477;-81
2022/06/02 23:05:01;;;;;;;9.73;6.93;;;11.80;99.90;;;;;;5055898;28;20024;-81
2022/06/02 23:08:01;;;;;;;8.07;5.53;;;11.80;99.90;;;;;;5074028;28;20029;-81
2022/06/02 23:10:59;;;;;;;6.63;5.63;;;11.90;99.90;;;;;;5074159;28;20031;-81
2022/06/02 23:13:45;;;;;;;10.13;6.55;;;12.00;99.90;;;;;;5073793;28;20048;-81